sensor_id;sensor_type;location;lat;lon;timestamp;P1;durP1;ratioP1;P2;durP2;ratioP2
62788;SDS011;66401;42.016;21.454;2023-06-22T00:00:51;17.90;;;13.37;;
62788;SDS011;66401;42.016;21.454;2023-06-22T00:03:17;14.77;;;11.53;;
62788;SDS011;66401;42.016;21.454;2023-06-22T00:05:44;15.53;;;12.10;;
62788;SDS011;66401;42.016;21.454;2023-06-22T00:08:10;13.27;;;10.90;;
62788;SDS011;66401;42.016;21.454;2023-06-22T00:10:36;14.07;;;11.50;;
62788;SDS011;66401;42.016;21.454;2023-06-22T00:13:01;14.60;;;11.70;;
62788;SDS011;66401;42.016;21.454;2023-06-22T00:15:27;13.87;;;11.63;;
62788;SDS011;66401;42.016;21.454;2023-06-22T00:17:53;14.67;;;12.50;;
62788;SDS011;66401;42.016;21.454;2023-06-22T00:20:18;13.17;;;11.53;;
62788;SDS011;66401;42.016;21.454;2023-06-22T00:22:44;16.70;;;11.90;;
62788;SDS011;66401;42.016;21.454;2023-06-22T00:25:10;17.03;;;13.10;;
62788;SDS011;66401;42.016;21.454;2023-06-22T00:27:36;21.13;;;14.00;;
62788;SDS011;66401;42.016;21.454;2023-06-22T00:30:02;16.27;;;13.20;;
62788;SDS011;66401;42.016;21.454;2023-06-22T00:32:28;16.07;;;13.00;;
62788;SDS011;66401;42.016;21.454;2023-06-22T00:34:54;17.40;;;13.23;;
62788;SDS011;66401;42.016;21.454;2023-06-22T00:37:19;17.63;;;14.27;;
62788;SDS011;66401;42.016;21.454;2023-06-22T00:39:53;17.83;;;14.23;;
62788;SDS011;66401;42.016;21.454;2023-06-22T00:42:19;18.17;;;13.83;;
62788;SDS011;66401;42.016;21.454;2023-06-22T00:44:45;20.20;;;14.90;;
62788;SDS011;66401;42.016;21.454;2023-06-22T00:47:11;19.87;;;14.53;;
62788;SDS011;66401;42.016;21.454;2023-06-22T00:49:40;20.00;;;14.03;;
62788;SDS011;66401;42.016;21.454;2023-06-22T00:52:06;15.53;;;13.40;;
62788;SDS011;66401;42.016;21.454;2023-06-22T00:54:34;16.67;;;13.83;;
62788;SDS011;66401;42.016;21.454;2023-06-22T00:57:01;16.20;;;12.60;;
62788;SDS011;66401;42.016;21.454;2023-06-22T00:59:27;17.27;;;13.20;;
62788;SDS011;66401;42.016;21.454;2023-06-22T01:01:53;16.03;;;13.07;;
62788;SDS011;66401;42.016;21.454;2023-06-22T01:04:19;14.83;;;13.13;;
62788;SDS011;66401;42.016;21.454;2023-06-22T01:06:52;15.33;;;13.63;;
62788;SDS011;66401;42.016;21.454;2023-06-22T01:09:31;15.17;;;12.30;;
62788;SDS011;66401;42.016;21.454;2023-06-22T01:12:01;17.67;;;12.97;;
62788;SDS011;66401;42.016;21.454;2023-06-22T01:14:44;18.83;;;13.03;;
62788;SDS011;66401;42.016;21.454;2023-06-22T01:17:17;19.27;;;14.10;;
62788;SDS011;66401;42.016;21.454;2023-06-22T01:19:49;19.07;;;14.27;;
62788;SDS011;66401;42.016;21.454;2023-06-22T01:22:21;16.63;;;14.13;;
62788;SDS011;66401;42.016;21.454;2023-06-22T01:24:57;17.80;;;14.37;;
62788;SDS011;66401;42.016;21.454;2023-06-22T01:30:25;21.00;;;16.07;;
62788;SDS011;66401;42.016;21.454;2023-06-22T01:32:54;21.97;;;14.97;;
62788;SDS011;66401;42.016;21.454;2023-06-22T01:35:23;23.80;;;16.57;;
62788;SDS011;66401;42.016;21.454;2023-06-22T01:37:50;20.20;;;16.77;;
62788;SDS011;66401;42.016;21.454;2023-06-22T01:40:15;21.57;;;16.47;;
62788;SDS011;66401;42.016;21.454;2023-06-22T01:42:42;20.93;;;15.67;;
62788;SDS011;66401;42.016;21.454;2023-06-22T01:45:08;20.17;;;15.23;;
62788;SDS011;66401;42.016;21.454;2023-06-22T01:47:36;18.20;;;14.50;;
62788;SDS011;66401;42.016;21.454;2023-06-22T01:50:01;19.70;;;15.10;;
62788;SDS011;66401;42.016;21.454;2023-06-22T01:52:27;21.63;;;15.80;;
62788;SDS011;66401;42.016;21.454;2023-06-22T01:54:53;24.07;;;16.50;;
62788;SDS011;66401;42.016;21.454;2023-06-22T01:57:18;20.80;;;14.47;;
62788;SDS011;66401;42.016;21.454;2023-06-22T01:59:59;19.37;;;14.93;;
62788;SDS011;66401;42.016;21.454;2023-06-22T02:02:32;18.53;;;15.13;;
62788;SDS011;66401;42.016;21.454;2023-06-22T02:05:03;19.50;;;13.93;;
62788;SDS011;66401;42.016;21.454;2023-06-22T02:07:32;16.67;;;13.00;;
62788;SDS011;66401;42.016;21.454;2023-06-22T02:10:03;18.00;;;14.13;;
62788;SDS011;66401;42.016;21.454;2023-06-22T02:12:31;16.77;;;12.77;;
62788;SDS011;66401;42.016;21.454;2023-06-22T02:14:58;15.60;;;12.57;;
62788;SDS011;66401;42.016;21.454;2023-06-22T02:17:26;18.37;;;11.90;;
62788;SDS011;66401;42.016;21.454;2023-06-22T02:19:51;17.20;;;12.80;;
62788;SDS011;66401;42.016;21.454;2023-06-22T02:22:17;15.37;;;12.73;;
62788;SDS011;66401;42.016;21.454;2023-06-22T02:24:43;15.40;;;12.30;;
62788;SDS011;66401;42.016;21.454;2023-06-22T02:27:08;13.97;;;11.70;;
62788;SDS011;66401;42.016;21.454;2023-06-22T02:29:34;20.37;;;13.37;;
62788;SDS011;66401;42.016;21.454;2023-06-22T02:32:00;15.13;;;12.07;;
62788;SDS011;66401;42.016;21.454;2023-06-22T02:34:26;15.70;;;12.53;;
62788;SDS011;66401;42.016;21.454;2023-06-22T02:36:51;15.73;;;12.07;;
62788;SDS011;66401;42.016;21.454;2023-06-22T02:39:18;15.10;;;11.97;;
62788;SDS011;66401;42.016;21.454;2023-06-22T02:41:45;15.63;;;12.30;;
62788;SDS011;66401;42.016;21.454;2023-06-22T02:44:11;15.90;;;13.30;;
62788;SDS011;66401;42.016;21.454;2023-06-22T02:46:36;15.43;;;13.43;;
62788;SDS011;66401;42.016;21.454;2023-06-22T02:49:02;15.57;;;12.53;;
62788;SDS011;66401;42.016;21.454;2023-06-22T02:51:27;15.37;;;12.37;;
62788;SDS011;66401;42.016;21.454;2023-06-22T02:53:53;13.93;;;11.83;;
62788;SDS011;66401;42.016;21.454;2023-06-22T02:56:22;17.07;;;13.23;;
62788;SDS011;66401;42.016;21.454;2023-06-22T02:58:51;13.70;;;12.30;;
62788;SDS011;66401;42.016;21.454;2023-06-22T03:01:17;16.57;;;12.63;;
62788;SDS011;66401;42.016;21.454;2023-06-22T03:03:48;17.10;;;13.90;;
62788;SDS011;66401;42.016;21.454;2023-06-22T03:06:13;16.63;;;13.97;;
62788;SDS011;66401;42.016;21.454;2023-06-22T03:08:39;19.70;;;14.87;;
62788;SDS011;66401;42.016;21.454;2023-06-22T03:11:06;17.40;;;15.03;;
62788;SDS011;66401;42.016;21.454;2023-06-22T03:13:32;18.83;;;14.40;;
62788;SDS011;66401;42.016;21.454;2023-06-22T03:15:58;18.80;;;14.60;;
62788;SDS011;66401;42.016;21.454;2023-06-22T03:18:23;23.00;;;14.87;;
62788;SDS011;66401;42.016;21.454;2023-06-22T03:20:49;19.00;;;14.30;;
62788;SDS011;66401;42.016;21.454;2023-06-22T03:23:14;19.67;;;14.20;;
62788;SDS011;66401;42.016;21.454;2023-06-22T03:25:40;17.90;;;14.17;;
62788;SDS011;66401;42.016;21.454;2023-06-22T03:28:06;17.03;;;14.00;;
62788;SDS011;66401;42.016;21.454;2023-06-22T03:30:32;19.40;;;15.23;;
62788;SDS011;66401;42.016;21.454;2023-06-22T03:32:57;19.53;;;15.13;;
62788;SDS011;66401;42.016;21.454;2023-06-22T03:35:23;19.60;;;14.87;;
62788;SDS011;66401;42.016;21.454;2023-06-22T03:37:48;22.83;;;14.53;;
62788;SDS011;66401;42.016;21.454;2023-06-22T03:40:13;19.20;;;13.90;;
62788;SDS011;66401;42.016;21.454;2023-06-22T03:42:39;21.53;;;14.43;;
62788;SDS011;66401;42.016;21.454;2023-06-22T03:45:05;21.37;;;16.20;;
62788;SDS011;66401;42.016;21.454;2023-06-22T03:47:31;18.90;;;15.87;;
62788;SDS011;66401;42.016;21.454;2023-06-22T03:49:58;20.33;;;15.70;;
62788;SDS011;66401;42.016;21.454;2023-06-22T03:52:23;19.47;;;16.20;;
62788;SDS011;66401;42.016;21.454;2023-06-22T03:54:50;22.10;;;16.03;;
62788;SDS011;66401;42.016;21.454;2023-06-22T03:57:16;22.00;;;16.50;;
62788;SDS011;66401;42.016;21.454;2023-06-22T03:59:41;20.57;;;16.97;;
62788;SDS011;66401;42.016;21.454;2023-06-22T04:02:07;19.73;;;15.77;;
62788;SDS011;66401;42.016;21.454;2023-06-22T04:04:33;21.30;;;16.10;;
62788;SDS011;66401;42.016;21.454;2023-06-22T04:07:00;22.53;;;15.90;;
62788;SDS011;66401;42.016;21.454;2023-06-22T04:09:25;22.43;;;16.03;;
62788;SDS011;66401;42.016;21.454;2023-06-22T04:11:51;21.00;;;15.33;;
62788;SDS011;66401;42.016;21.454;2023-06-22T04:14:17;23.13;;;15.17;;
62788;SDS011;66401;42.016;21.454;2023-06-22T04:16:42;18.63;;;15.40;;
62788;SDS011;66401;42.016;21.454;2023-06-22T04:19:08;18.67;;;14.60;;
62788;SDS011;66401;42.016;21.454;2023-06-22T04:21:39;19.13;;;14.97;;
62788;SDS011;66401;42.016;21.454;2023-06-22T04:24:04;22.50;;;16.30;;
62788;SDS011;66401;42.016;21.454;2023-06-22T04:26:30;19.73;;;15.47;;
62788;SDS011;66401;42.016;21.454;2023-06-22T04:28:55;18.67;;;14.47;;
62788;SDS011;66401;42.016;21.454;2023-06-22T04:31:21;18.53;;;15.10;;
62788;SDS011;66401;42.016;21.454;2023-06-22T04:33:57;20.70;;;16.20;;
62788;SDS011;66401;42.016;21.454;2023-06-22T04:36:38;22.07;;;16.60;;
62788;SDS011;66401;42.016;21.454;2023-06-22T04:39:09;22.63;;;16.70;;
62788;SDS011;66401;42.016;21.454;2023-06-22T04:41:36;21.27;;;15.97;;
62788;SDS011;66401;42.016;21.454;2023-06-22T04:44:11;23.63;;;15.40;;
62788;SDS011;66401;42.016;21.454;2023-06-22T04:46:37;21.07;;;15.83;;
62788;SDS011;66401;42.016;21.454;2023-06-22T04:49:07;19.80;;;16.73;;
62788;SDS011;66401;42.016;21.454;2023-06-22T04:51:39;22.50;;;16.60;;
62788;SDS011;66401;42.016;21.454;2023-06-22T04:54:06;22.40;;;15.70;;
62788;SDS011;66401;42.016;21.454;2023-06-22T04:56:34;19.97;;;16.03;;
62788;SDS011;66401;42.016;21.454;2023-06-22T04:58:59;19.77;;;16.00;;
62788;SDS011;66401;42.016;21.454;2023-06-22T05:01:25;21.73;;;16.47;;
62788;SDS011;66401;42.016;21.454;2023-06-22T05:03:52;22.47;;;16.20;;
62788;SDS011;66401;42.016;21.454;2023-06-22T05:06:22;23.53;;;17.13;;
62788;SDS011;66401;42.016;21.454;2023-06-22T05:08:52;22.67;;;15.83;;
62788;SDS011;66401;42.016;21.454;2023-06-22T05:11:23;21.63;;;16.50;;
62788;SDS011;66401;42.016;21.454;2023-06-22T05:13:49;19.93;;;14.93;;
62788;SDS011;66401;42.016;21.454;2023-06-22T05:16:15;25.40;;;16.30;;
62788;SDS011;66401;42.016;21.454;2023-06-22T05:18:40;19.87;;;15.33;;
62788;SDS011;66401;42.016;21.454;2023-06-22T05:21:06;22.47;;;15.97;;
62788;SDS011;66401;42.016;21.454;2023-06-22T05:23:32;23.63;;;16.07;;
62788;SDS011;66401;42.016;21.454;2023-06-22T05:25:57;20.00;;;15.20;;
62788;SDS011;66401;42.016;21.454;2023-06-22T05:28:23;20.93;;;15.50;;
62788;SDS011;66401;42.016;21.454;2023-06-22T05:30:48;20.63;;;15.97;;
62788;SDS011;66401;42.016;21.454;2023-06-22T05:33:14;19.53;;;15.60;;
62788;SDS011;66401;42.016;21.454;2023-06-22T05:35:39;22.23;;;15.90;;
62788;SDS011;66401;42.016;21.454;2023-06-22T05:38:05;22.10;;;16.40;;
62788;SDS011;66401;42.016;21.454;2023-06-22T05:40:30;24.30;;;16.90;;
62788;SDS011;66401;42.016;21.454;2023-06-22T05:42:56;23.63;;;17.10;;
62788;SDS011;66401;42.016;21.454;2023-06-22T05:45:21;25.00;;;17.40;;
62788;SDS011;66401;42.016;21.454;2023-06-22T05:47:47;24.30;;;17.37;;
62788;SDS011;66401;42.016;21.454;2023-06-22T05:50:13;22.37;;;16.20;;
62788;SDS011;66401;42.016;21.454;2023-06-22T05:52:39;25.33;;;16.50;;
62788;SDS011;66401;42.016;21.454;2023-06-22T05:55:04;25.70;;;16.43;;
62788;SDS011;66401;42.016;21.454;2023-06-22T05:57:30;41.37;;;26.23;;
62788;SDS011;66401;42.016;21.454;2023-06-22T05:59:56;39.93;;;24.37;;
62788;SDS011;66401;42.016;21.454;2023-06-22T06:02:21;38.90;;;22.90;;
62788;SDS011;66401;42.016;21.454;2023-06-22T06:04:47;35.20;;;22.90;;
62788;SDS011;66401;42.016;21.454;2023-06-22T06:07:12;38.30;;;23.37;;
62788;SDS011;66401;42.016;21.454;2023-06-22T06:09:38;28.17;;;19.77;;
62788;SDS011;66401;42.016;21.454;2023-06-22T06:12:06;37.50;;;21.53;;
62788;SDS011;66401;42.016;21.454;2023-06-22T06:14:33;37.67;;;22.53;;
62788;SDS011;66401;42.016;21.454;2023-06-22T06:16:58;36.77;;;22.67;;
62788;SDS011;66401;42.016;21.454;2023-06-22T06:19:24;33.37;;;21.20;;
62788;SDS011;66401;42.016;21.454;2023-06-22T06:21:49;38.60;;;22.43;;
62788;SDS011;66401;42.016;21.454;2023-06-22T06:24:15;39.90;;;25.37;;
62788;SDS011;66401;42.016;21.454;2023-06-22T06:26:41;36.83;;;22.77;;
62788;SDS011;66401;42.016;21.454;2023-06-22T06:29:07;38.33;;;23.13;;
62788;SDS011;66401;42.016;21.454;2023-06-22T06:31:32;36.53;;;22.87;;
62788;SDS011;66401;42.016;21.454;2023-06-22T06:33:58;37.03;;;22.30;;
62788;SDS011;66401;42.016;21.454;2023-06-22T06:36:24;35.57;;;22.33;;
62788;SDS011;66401;42.016;21.454;2023-06-22T06:38:49;32.27;;;19.63;;
62788;SDS011;66401;42.016;21.454;2023-06-22T06:41:15;31.73;;;20.07;;
62788;SDS011;66401;42.016;21.454;2023-06-22T06:43:41;37.07;;;21.37;;
62788;SDS011;66401;42.016;21.454;2023-06-22T06:46:10;28.00;;;20.33;;
62788;SDS011;66401;42.016;21.454;2023-06-22T06:48:36;31.00;;;20.10;;
62788;SDS011;66401;42.016;21.454;2023-06-22T06:51:01;38.53;;;20.97;;
62788;SDS011;66401;42.016;21.454;2023-06-22T06:53:27;29.93;;;19.57;;
62788;SDS011;66401;42.016;21.454;2023-06-22T06:55:54;29.23;;;20.33;;
62788;SDS011;66401;42.016;21.454;2023-06-22T06:58:19;31.20;;;20.30;;
62788;SDS011;66401;42.016;21.454;2023-06-22T07:00:45;29.93;;;19.13;;
62788;SDS011;66401;42.016;21.454;2023-06-22T07:03:10;30.17;;;19.87;;
62788;SDS011;66401;42.016;21.454;2023-06-22T07:05:36;29.33;;;19.20;;
62788;SDS011;66401;42.016;21.454;2023-06-22T07:08:01;28.57;;;18.03;;
62788;SDS011;66401;42.016;21.454;2023-06-22T07:10:27;27.57;;;18.80;;
62788;SDS011;66401;42.016;21.454;2023-06-22T07:12:54;28.67;;;17.47;;
62788;SDS011;66401;42.016;21.454;2023-06-22T07:15:19;22.27;;;17.50;;
62788;SDS011;66401;42.016;21.454;2023-06-22T07:17:45;22.77;;;15.73;;
62788;SDS011;66401;42.016;21.454;2023-06-22T07:20:10;28.43;;;17.00;;
62788;SDS011;66401;42.016;21.454;2023-06-22T07:22:39;22.50;;;16.60;;
62788;SDS011;66401;42.016;21.454;2023-06-22T07:25:07;20.20;;;15.80;;
62788;SDS011;66401;42.016;21.454;2023-06-22T07:27:39;19.90;;;14.90;;
62788;SDS011;66401;42.016;21.454;2023-06-22T07:30:10;20.10;;;15.57;;
62788;SDS011;66401;42.016;21.454;2023-06-22T07:32:36;23.07;;;15.50;;
62788;SDS011;66401;42.016;21.454;2023-06-22T07:35:01;20.63;;;15.60;;
62788;SDS011;66401;42.016;21.454;2023-06-22T07:37:28;20.10;;;15.67;;
62788;SDS011;66401;42.016;21.454;2023-06-22T07:39:54;18.30;;;15.37;;
62788;SDS011;66401;42.016;21.454;2023-06-22T07:42:25;19.70;;;15.13;;
62788;SDS011;66401;42.016;21.454;2023-06-22T07:44:51;21.17;;;15.90;;
62788;SDS011;66401;42.016;21.454;2023-06-22T07:47:17;19.77;;;15.07;;
62788;SDS011;66401;42.016;21.454;2023-06-22T07:49:50;20.40;;;15.30;;
62788;SDS011;66401;42.016;21.454;2023-06-22T07:52:15;19.67;;;14.87;;
62788;SDS011;66401;42.016;21.454;2023-06-22T07:54:41;21.73;;;14.73;;
62788;SDS011;66401;42.016;21.454;2023-06-22T07:57:06;16.47;;;14.27;;
62788;SDS011;66401;42.016;21.454;2023-06-22T07:59:32;17.13;;;14.30;;
62788;SDS011;66401;42.016;21.454;2023-06-22T08:01:57;20.37;;;15.33;;
62788;SDS011;66401;42.016;21.454;2023-06-22T08:04:23;19.77;;;14.67;;
62788;SDS011;66401;42.016;21.454;2023-06-22T08:06:48;21.47;;;14.63;;
62788;SDS011;66401;42.016;21.454;2023-06-22T08:09:30;16.10;;;14.20;;
62788;SDS011;66401;42.016;21.454;2023-06-22T08:11:56;17.70;;;14.57;;
62788;SDS011;66401;42.016;21.454;2023-06-22T08:14:25;18.43;;;14.93;;
62788;SDS011;66401;42.016;21.454;2023-06-22T08:16:56;20.60;;;15.63;;
62788;SDS011;66401;42.016;21.454;2023-06-22T08:19:22;19.10;;;15.30;;
62788;SDS011;66401;42.016;21.454;2023-06-22T08:21:47;19.60;;;15.03;;
62788;SDS011;66401;42.016;21.454;2023-06-22T08:24:12;20.97;;;15.30;;
62788;SDS011;66401;42.016;21.454;2023-06-22T08:26:38;21.70;;;15.43;;
62788;SDS011;66401;42.016;21.454;2023-06-22T08:29:03;20.00;;;15.47;;
62788;SDS011;66401;42.016;21.454;2023-06-22T08:31:30;18.40;;;14.60;;
62788;SDS011;66401;42.016;21.454;2023-06-22T08:33:56;20.20;;;14.63;;
62788;SDS011;66401;42.016;21.454;2023-06-22T08:36:21;18.70;;;13.57;;
62788;SDS011;66401;42.016;21.454;2023-06-22T08:38:47;18.13;;;13.83;;
62788;SDS011;66401;42.016;21.454;2023-06-22T08:41:16;16.20;;;14.20;;
62788;SDS011;66401;42.016;21.454;2023-06-22T08:43:44;18.23;;;14.13;;
62788;SDS011;66401;42.016;21.454;2023-06-22T08:46:10;18.47;;;13.73;;
62788;SDS011;66401;42.016;21.454;2023-06-22T08:48:36;16.27;;;13.77;;
62788;SDS011;66401;42.016;21.454;2023-06-22T08:51:01;15.80;;;14.13;;
62788;SDS011;66401;42.016;21.454;2023-06-22T08:53:28;23.93;;;13.33;;
62788;SDS011;66401;42.016;21.454;2023-06-22T08:55:53;21.57;;;14.13;;
62788;SDS011;66401;42.016;21.454;2023-06-22T08:58:19;16.50;;;13.50;;
62788;SDS011;66401;42.016;21.454;2023-06-22T09:00:46;16.83;;;12.57;;
62788;SDS011;66401;42.016;21.454;2023-06-22T09:03:12;15.10;;;13.13;;
62788;SDS011;66401;42.016;21.454;2023-06-22T09:05:37;17.50;;;13.27;;
62788;SDS011;66401;42.016;21.454;2023-06-22T09:08:03;20.90;;;14.27;;
62788;SDS011;66401;42.016;21.454;2023-06-22T09:10:29;16.03;;;13.23;;
62788;SDS011;66401;42.016;21.454;2023-06-22T09:12:54;17.07;;;13.37;;
62788;SDS011;66401;42.016;21.454;2023-06-22T09:15:19;16.23;;;13.73;;
62788;SDS011;66401;42.016;21.454;2023-06-22T09:17:45;17.93;;;13.43;;
62788;SDS011;66401;42.016;21.454;2023-06-22T09:20:11;13.80;;;12.00;;
62788;SDS011;66401;42.016;21.454;2023-06-22T09:22:37;16.23;;;12.87;;
62788;SDS011;66401;42.016;21.454;2023-06-22T09:25:04;13.90;;;12.53;;
62788;SDS011;66401;42.016;21.454;2023-06-22T09:27:30;18.30;;;12.50;;
62788;SDS011;66401;42.016;21.454;2023-06-22T09:29:55;13.00;;;11.70;;
62788;SDS011;66401;42.016;21.454;2023-06-22T09:32:23;13.47;;;11.77;;
62788;SDS011;66401;42.016;21.454;2023-06-22T09:34:49;13.50;;;12.20;;
62788;SDS011;66401;42.016;21.454;2023-06-22T09:37:15;15.57;;;12.83;;
62788;SDS011;66401;42.016;21.454;2023-06-22T09:39:40;14.93;;;12.33;;
62788;SDS011;66401;42.016;21.454;2023-06-22T09:42:06;14.47;;;11.83;;
62788;SDS011;66401;42.016;21.454;2023-06-22T09:44:31;14.80;;;12.27;;
62788;SDS011;66401;42.016;21.454;2023-06-22T09:46:57;17.60;;;12.47;;
62788;SDS011;66401;42.016;21.454;2023-06-22T09:49:22;16.30;;;12.60;;
62788;SDS011;66401;42.016;21.454;2023-06-22T09:51:48;13.40;;;12.07;;
62788;SDS011;66401;42.016;21.454;2023-06-22T09:54:14;13.50;;;12.10;;
62788;SDS011;66401;42.016;21.454;2023-06-22T09:56:40;16.83;;;11.80;;
62788;SDS011;66401;42.016;21.454;2023-06-22T09:59:05;16.33;;;12.00;;
62788;SDS011;66401;42.016;21.454;2023-06-22T10:01:31;11.97;;;10.77;;
62788;SDS011;66401;42.016;21.454;2023-06-22T10:03:56;13.87;;;12.17;;
62788;SDS011;66401;42.016;21.454;2023-06-22T10:06:22;17.60;;;12.33;;
62788;SDS011;66401;42.016;21.454;2023-06-22T10:08:50;15.03;;;11.57;;
62788;SDS011;66401;42.016;21.454;2023-06-22T10:11:18;18.37;;;11.83;;
62788;SDS011;66401;42.016;21.454;2023-06-22T10:13:44;15.33;;;12.17;;
62788;SDS011;66401;42.016;21.454;2023-06-22T10:16:09;11.20;;;10.10;;
62788;SDS011;66401;42.016;21.454;2023-06-22T10:18:35;9.33;;;8.43;;
62788;SDS011;66401;42.016;21.454;2023-06-22T10:21:00;10.90;;;9.90;;
62788;SDS011;66401;42.016;21.454;2023-06-22T10:23:27;12.13;;;9.50;;
62788;SDS011;66401;42.016;21.454;2023-06-22T10:25:52;12.67;;;10.47;;
62788;SDS011;66401;42.016;21.454;2023-06-22T10:28:18;14.13;;;10.07;;
62788;SDS011;66401;42.016;21.454;2023-06-22T10:30:44;14.90;;;10.17;;
62788;SDS011;66401;42.016;21.454;2023-06-22T10:33:10;10.73;;;9.47;;
62788;SDS011;66401;42.016;21.454;2023-06-22T10:35:36;13.53;;;10.17;;
62788;SDS011;66401;42.016;21.454;2023-06-22T10:38:05;11.73;;;9.90;;
62788;SDS011;66401;42.016;21.454;2023-06-22T10:40:31;12.03;;;9.97;;
62788;SDS011;66401;42.016;21.454;2023-06-22T10:42:57;10.73;;;9.63;;
62788;SDS011;66401;42.016;21.454;2023-06-22T10:45:23;10.87;;;9.30;;
62788;SDS011;66401;42.016;21.454;2023-06-22T10:47:48;10.83;;;9.73;;
62788;SDS011;66401;42.016;21.454;2023-06-22T10:50:14;11.10;;;9.93;;
62788;SDS011;66401;42.016;21.454;2023-06-22T10:52:39;13.70;;;10.57;;
62788;SDS011;66401;42.016;21.454;2023-06-22T10:55:06;13.23;;;11.10;;
62788;SDS011;66401;42.016;21.454;2023-06-22T11:00:02;11.73;;;10.57;;
62788;SDS011;66401;42.016;21.454;2023-06-22T11:02:30;11.07;;;9.97;;
62788;SDS011;66401;42.016;21.454;2023-06-22T11:04:56;12.90;;;10.40;;
62788;SDS011;66401;42.016;21.454;2023-06-22T11:07:25;12.23;;;9.83;;
62788;SDS011;66401;42.016;21.454;2023-06-22T11:09:52;13.00;;;10.13;;
62788;SDS011;66401;42.016;21.454;2023-06-22T11:12:18;12.00;;;10.80;;
62788;SDS011;66401;42.016;21.454;2023-06-22T11:14:43;11.37;;;10.17;;
62788;SDS011;66401;42.016;21.454;2023-06-22T11:17:09;11.37;;;10.30;;
62788;SDS011;66401;42.016;21.454;2023-06-22T11:19:34;15.20;;;11.30;;
62788;SDS011;66401;42.016;21.454;2023-06-22T11:22:00;10.83;;;9.60;;
62788;SDS011;66401;42.016;21.454;2023-06-22T11:24:25;10.23;;;9.03;;
62788;SDS011;66401;42.016;21.454;2023-06-22T11:26:51;11.43;;;10.27;;
62788;SDS011;66401;42.016;21.454;2023-06-22T11:29:16;11.57;;;9.80;;
62788;SDS011;66401;42.016;21.454;2023-06-22T11:31:42;11.20;;;10.07;;
62788;SDS011;66401;42.016;21.454;2023-06-22T11:34:08;12.70;;;10.00;;
62788;SDS011;66401;42.016;21.454;2023-06-22T11:36:34;12.10;;;9.57;;
62788;SDS011;66401;42.016;21.454;2023-06-22T11:39:00;13.27;;;10.00;;
62788;SDS011;66401;42.016;21.454;2023-06-22T11:41:26;12.33;;;10.23;;
62788;SDS011;66401;42.016;21.454;2023-06-22T11:43:51;10.40;;;9.30;;
62788;SDS011;66401;42.016;21.454;2023-06-22T11:46:17;13.77;;;10.20;;
62788;SDS011;66401;42.016;21.454;2023-06-22T11:48:42;12.27;;;10.53;;
62788;SDS011;66401;42.016;21.454;2023-06-22T11:51:08;13.83;;;10.17;;
62788;SDS011;66401;42.016;21.454;2023-06-22T11:53:34;11.50;;;10.30;;
62788;SDS011;66401;42.016;21.454;2023-06-22T11:56:00;13.23;;;9.77;;
62788;SDS011;66401;42.016;21.454;2023-06-22T11:58:26;11.97;;;10.07;;
62788;SDS011;66401;42.016;21.454;2023-06-22T12:00:52;11.03;;;9.83;;
62788;SDS011;66401;42.016;21.454;2023-06-22T12:03:18;10.23;;;9.23;;
62788;SDS011;66401;42.016;21.454;2023-06-22T12:05:45;11.67;;;9.33;;
62788;SDS011;66401;42.016;21.454;2023-06-22T12:08:10;10.17;;;8.43;;
62788;SDS011;66401;42.016;21.454;2023-06-22T12:10:37;9.60;;;8.67;;
62788;SDS011;66401;42.016;21.454;2023-06-22T12:13:02;9.37;;;8.47;;
62788;SDS011;66401;42.016;21.454;2023-06-22T12:15:27;9.80;;;8.37;;
62788;SDS011;66401;42.016;21.454;2023-06-22T12:17:53;8.17;;;6.53;;
62788;SDS011;66401;42.016;21.454;2023-06-22T12:20:18;8.53;;;7.80;;
62788;SDS011;66401;42.016;21.454;2023-06-22T12:22:44;9.37;;;7.93;;
62788;SDS011;66401;42.016;21.454;2023-06-22T12:25:10;8.20;;;7.40;;
62788;SDS011;66401;42.016;21.454;2023-06-22T12:27:36;8.27;;;6.80;;
62788;SDS011;66401;42.016;21.454;2023-06-22T12:30:02;8.80;;;7.37;;
62788;SDS011;66401;42.016;21.454;2023-06-22T12:32:28;8.83;;;7.97;;
62788;SDS011;66401;42.016;21.454;2023-06-22T12:34:53;8.53;;;7.30;;
62788;SDS011;66401;42.016;21.454;2023-06-22T12:37:19;7.80;;;7.10;;
62788;SDS011;66401;42.016;21.454;2023-06-22T12:39:44;8.90;;;6.80;;
62788;SDS011;66401;42.016;21.454;2023-06-22T12:42:10;6.03;;;5.53;;
62788;SDS011;66401;42.016;21.454;2023-06-22T12:44:39;6.63;;;5.53;;
62788;SDS011;66401;42.016;21.454;2023-06-22T12:47:05;7.17;;;5.40;;
62788;SDS011;66401;42.016;21.454;2023-06-22T12:49:31;5.00;;;4.60;;
62788;SDS011;66401;42.016;21.454;2023-06-22T12:51:56;7.20;;;5.33;;
62788;SDS011;66401;42.016;21.454;2023-06-22T12:54:22;7.90;;;7.20;;
62788;SDS011;66401;42.016;21.454;2023-06-22T12:56:49;7.07;;;5.27;;
62788;SDS011;66401;42.016;21.454;2023-06-22T12:59:15;6.83;;;5.80;;
62788;SDS011;66401;42.016;21.454;2023-06-22T13:01:42;6.50;;;5.77;;
62788;SDS011;66401;42.016;21.454;2023-06-22T13:04:10;4.77;;;4.37;;
62788;SDS011;66401;42.016;21.454;2023-06-22T13:06:38;5.77;;;4.10;;
62788;SDS011;66401;42.016;21.454;2023-06-22T13:09:03;6.90;;;5.03;;
62788;SDS011;66401;42.016;21.454;2023-06-22T13:11:30;5.10;;;4.70;;
62788;SDS011;66401;42.016;21.454;2023-06-22T13:13:55;5.10;;;4.60;;
62788;SDS011;66401;42.016;21.454;2023-06-22T13:16:21;8.53;;;4.87;;
62788;SDS011;66401;42.016;21.454;2023-06-22T13:18:47;5.20;;;4.70;;
62788;SDS011;66401;42.016;21.454;2023-06-22T13:21:12;6.73;;;4.73;;
62788;SDS011;66401;42.016;21.454;2023-06-22T13:23:39;5.67;;;4.70;;
62788;SDS011;66401;42.016;21.454;2023-06-22T13:26:04;5.77;;;4.50;;
62788;SDS011;66401;42.016;21.454;2023-06-22T13:28:30;6.07;;;5.47;;
62788;SDS011;66401;42.016;21.454;2023-06-22T13:30:55;6.70;;;5.30;;
62788;SDS011;66401;42.016;21.454;2023-06-22T13:33:21;7.30;;;4.93;;
62788;SDS011;66401;42.016;21.454;2023-06-22T13:35:46;5.00;;;4.50;;
62788;SDS011;66401;42.016;21.454;2023-06-22T13:38:12;5.47;;;4.53;;
62788;SDS011;66401;42.016;21.454;2023-06-22T13:40:37;5.17;;;4.77;;
62788;SDS011;66401;42.016;21.454;2023-06-22T13:43:03;5.17;;;4.50;;
62788;SDS011;66401;42.016;21.454;2023-06-22T13:45:29;5.43;;;4.77;;
62788;SDS011;66401;42.016;21.454;2023-06-22T13:47:55;6.20;;;5.00;;
62788;SDS011;66401;42.016;21.454;2023-06-22T13:50:20;4.60;;;4.20;;
62788;SDS011;66401;42.016;21.454;2023-06-22T13:52:46;6.13;;;4.40;;
62788;SDS011;66401;42.016;21.454;2023-06-22T13:55:11;5.77;;;5.20;;
62788;SDS011;66401;42.016;21.454;2023-06-22T13:57:39;7.27;;;6.57;;
62788;SDS011;66401;42.016;21.454;2023-06-22T14:00:05;5.10;;;4.47;;
62788;SDS011;66401;42.016;21.454;2023-06-22T14:02:31;6.50;;;4.90;;
62788;SDS011;66401;42.016;21.454;2023-06-22T14:04:57;5.23;;;4.70;;
62788;SDS011;66401;42.016;21.454;2023-06-22T14:07:22;6.07;;;4.87;;
62788;SDS011;66401;42.016;21.454;2023-06-22T14:09:49;5.53;;;3.97;;
62788;SDS011;66401;42.016;21.454;2023-06-22T14:12:15;4.70;;;4.30;;
62788;SDS011;66401;42.016;21.454;2023-06-22T14:14:42;5.13;;;4.30;;